Time;durP1;ratioP1;P1;durP2;ratioP2;P2;SDS_P1;SDS_P2;PMS_P1;PMS_P2;Temp;Humidity;BMP_temperature;BMP_pressure;BME280_temperature;BME280_humidity;BME280_pressure;Samples;Min_cycle;Max_cycle;Signal;HPM_P1;HPM_P2
2023/01/17 00:01:27;;;;;;;0.20;0.20;;;17.30;57.00;;;;;;5103764;27;45475;-69
2023/01/17 00:12:07;;;;;;;0.50;0.30;;;17.20;56.80;;;;;;5101181;27;45409;-68
2023/01/17 00:14:35;;;;;;;0.15;0.03;;;17.20;56.80;;;;;;5103627;27;45453;-68
2023/01/17 00:17:02;;;;;;;0.52;0.30;;;17.30;56.80;;;;;;5102537;27;46260;-68
2023/01/17 01:34:15;;;;;;;0.45;0.20;;;17.20;56.20;;;;;;5092197;27;45277;-68
2023/01/17 01:36:43;;;;;;;0.88;0.35;;;17.20;56.30;;;;;;5090476;27;45313;-67
2023/01/17 01:39:10;;;;;;;0.20;0.20;;;17.20;56.80;;;;;;5095763;27;45641;-68
2023/01/17 01:41:37;;;;;;;0.70;0.20;;;17.20;56.70;;;;;;5095574;27;45283;-68
2023/01/17 01:44:04;;;;;;;0.32;0.30;;;17.20;56.80;;;;;;5101221;27;45338;-68
2023/01/17 01:46:36;;;;;;;0.30;0.10;;;17.20;56.80;;;;;;5099380;27;45268;-68
2023/01/17 01:49:05;;;;;;;1.02;0.20;;;17.20;56.90;;;;;;5105427;27;45569;-67
2023/01/17 01:51:37;;;;;;;0.45;0.17;;;17.20;56.90;;;;;;5105218;27;46087;-68
2023/01/17 01:54:10;;;;;;;0.10;0.10;;;17.20;56.90;;;;;;5105681;27;45517;-68
2023/01/17 01:56:38;;;;;;;1.13;0.20;;;17.20;56.90;;;;;;5103790;27;45421;-67
2023/01/17 01:59:09;;;;;;;0.73;0.38;;;17.20;56.90;;;;;;5105345;27;45222;-68
2023/01/17 02:01:37;;;;;;;0.47;0.25;;;17.20;56.60;;;;;;5105361;27;45499;-68
2023/01/17 02:04:08;;;;;;;0.68;0.20;;;17.20;56.70;;;;;;5100478;27;45320;-68
2023/01/17 02:06:37;;;;;;;0.65;0.30;;;17.20;56.50;;;;;;5104884;27;45492;-68
2023/01/17 02:09:08;;;;;;;0.10;0.10;;;17.20;56.60;;;;;;5105321;27;45442;-68
2023/01/17 02:11:37;;;;;;;0.47;0.20;;;17.20;56.20;;;;;;5101994;27;46281;-68
2023/01/17 02:14:04;;;;;;;0.50;0.20;;;17.20;56.20;;;;;;5105186;27;45858;-68
2023/01/17 02:16:47;;;;;;;1.65;0.30;;;17.20;55.90;;;;;;5104582;27;45324;-68
2023/01/17 02:19:52;;;;;;;0.40;0.38;;;17.20;55.90;;;;;;5102610;27;45406;-68
2023/01/17 02:22:49;;;;;;;1.08;0.20;;;17.20;57.10;;;;;;5096183;27;48052;-68
2023/01/17 02:25:56;;;;;;;0.45;0.20;;;17.10;55.70;;;;;;5104308;27;45261;-68
2023/01/17 02:28:41;;;;;;;0.15;0.15;;;17.10;55.80;;;;;;5100170;27;45443;-67
2023/01/17 02:31:14;;;;;;;0.47;0.20;;;17.20;55.80;;;;;;5091483;27;45257;-68
2023/01/17 02:33:50;;;;;;;0.28;0.20;;;17.20;56.40;;;;;;5102047;27;46419;-68
2023/01/17 02:36:22;;;;;;;0.73;0.20;;;17.20;56.30;;;;;;5098231;27;45415;-68
2023/01/17 02:38:54;;;;;;;0.17;0.17;;;17.20;56.60;;;;;;5097188;27;45312;-68
2023/01/17 02:41:24;;;;;;;0.60;0.30;;;17.20;56.70;;;;;;5105103;27;45277;-68
2023/01/17 02:43:52;;;;;;;0.32;0.20;;;17.20;56.60;;;;;;5103317;27;48049;-67
2023/01/17 02:46:20;;;;;;;0.85;0.30;;;17.20;56.60;;;;;;5103959;27;45237;-68
2023/01/17 02:48:48;;;;;;;0.47;0.20;;;17.20;56.60;;;;;;5104373;27;45438;-68
2023/01/17 02:51:37;;;;;;;0.70;0.25;;;17.20;56.60;;;;;;5104516;27;45389;-68
2023/01/17 02:54:23;;;;;;;0.00;0.00;;;17.20;56.60;;;;;;5103419;27;46433;-68
2023/01/17 02:57:02;;;;;;;0.98;0.30;;;17.20;56.50;;;;;;5103161;27;45320;-67
2023/01/17 02:59:38;;;;;;;0.40;0.20;;;17.20;56.20;;;;;;5104528;27;45512;-68
2023/01/17 03:02:16;;;;;;;0.98;0.10;;;17.10;56.10;;;;;;5096475;27;45276;-69
2023/01/17 03:04:50;;;;;;;0.93;0.20;;;17.20;56.00;;;;;;5103613;27;46279;-68
2023/01/17 03:07:21;;;;;;;0.52;0.20;;;17.20;55.80;;;;;;5101390;27;45203;-68
2023/01/17 03:09:53;;;;;;;0.17;0.13;;;17.20;56.90;;;;;;5104548;27;45446;-68
2023/01/17 03:12:20;;;;;;;0.20;0.17;;;17.10;55.40;;;;;;5093187;27;45553;-67
2023/01/17 03:14:48;;;;;;;1.40;0.22;;;17.10;55.30;;;;;;5096767;27;45574;-68
2023/01/17 03:17:16;;;;;;;0.47;0.20;;;17.10;55.00;;;;;;5103349;27;45289;-68
2023/01/17 03:19:43;;;;;;;0.88;0.15;;;17.10;55.10;;;;;;5103823;27;45372;-68
2023/01/17 03:22:09;;;;;;;0.30;0.20;;;17.10;55.20;;;;;;5104187;27;45351;-68
2023/01/17 03:24:36;;;;;;;0.10;0.10;;;17.10;55.10;;;;;;5104003;27;45531;-68
2023/01/17 03:27:03;;;;;;;0.77;0.20;;;17.10;55.30;;;;;;5102321;27;45348;-68
2023/01/17 03:29:30;;;;;;;0.82;0.40;;;17.10;56.00;;;;;;5098810;27;45329;-69
2023/01/17 03:31:57;;;;;;;0.13;0.10;;;17.20;56.20;;;;;;5103678;27;45523;-68
2023/01/17 03:34:25;;;;;;;1.67;0.20;;;17.10;56.20;;;;;;5103699;27;46376;-68
2023/01/17 03:36:51;;;;;;;0.45;0.15;;;17.20;56.40;;;;;;5102782;27;45373;-68
2023/01/17 03:39:18;;;;;;;0.82;0.28;;;17.20;56.40;;;;;;5102294;27;45329;-68
2023/01/17 03:41:45;;;;;;;0.73;0.30;;;17.20;56.40;;;;;;5102932;27;45596;-69
2023/01/17 03:44:12;;;;;;;0.32;0.20;;;17.20;56.60;;;;;;5100859;27;46379;-68
2023/01/17 03:46:39;;;;;;;0.77;0.20;;;17.20;56.60;;;;;;5100062;27;45388;-68
2023/01/17 03:49:05;;;;;;;1.15;0.40;;;17.20;56.60;;;;;;5103368;27;45347;-68
2023/01/17 03:51:34;;;;;;;0.40;0.30;;;17.20;56.30;;;;;;5093543;27;45571;-68
2023/01/17 03:54:01;;;;;;;0.38;0.20;;;17.20;56.10;;;;;;5092768;27;45476;-68
2023/01/17 03:56:27;;;;;;;0.65;0.40;;;17.20;56.00;;;;;;5099424;27;45465;-68
2023/01/17 03:58:57;;;;;;;0.68;0.45;;;17.20;55.90;;;;;;5100889;27;45288;-68
2023/01/17 04:01:24;;;;;;;0.50;0.30;;;17.10;55.80;;;;;;5089668;27;45416;-68
2023/01/17 04:03:51;;;;;;;1.85;0.50;;;17.20;55.60;;;;;;5091519;27;46406;-68
2023/01/17 04:06:18;;;;;;;0.50;0.50;;;17.20;55.60;;;;;;5094547;27;45225;-68
2023/01/17 04:08:46;;;;;;;0.32;0.32;;;17.10;55.40;;;;;;5099060;27;45359;-68
2023/01/17 04:11:13;;;;;;;1.40;0.60;;;17.20;55.20;;;;;;5097265;27;45361;-68
2023/01/17 04:13:39;;;;;;;1.52;0.40;;;17.10;55.10;;;;;;5100908;27;46998;-67
2023/01/17 04:16:09;;;;;;;1.83;0.40;;;17.10;55.10;;;;;;5102847;27;45461;-68
2023/01/17 04:18:36;;;;;;;1.13;0.68;;;17.10;55.00;;;;;;5098481;27;45621;-67
2023/01/17 04:21:03;;;;;;;0.77;0.50;;;17.00;55.10;;;;;;5103195;27;45305;-68
2023/01/17 04:23:30;;;;;;;2.15;0.52;;;17.10;55.60;;;;;;5103129;27;47667;-67
2023/01/17 04:25:58;;;;;;;2.05;0.70;;;17.00;55.50;;;;;;5090146;27;45404;-68
2023/01/17 04:28:25;;;;;;;0.55;0.50;;;17.00;55.30;;;;;;5092121;27;45311;-68
2023/01/17 04:30:52;;;;;;;1.42;0.57;;;17.00;55.20;;;;;;5096558;27;45413;-67
2023/01/17 04:33:19;;;;;;;1.63;0.60;;;17.00;55.20;;;;;;5102832;27;47559;-68
2023/01/17 04:35:45;;;;;;;1.27;0.65;;;17.00;55.00;;;;;;5100136;27;45361;-68
2023/01/17 04:38:12;;;;;;;1.00;0.70;;;17.00;55.00;;;;;;5098023;27;45316;-68
2023/01/17 04:40:39;;;;;;;0.98;0.60;;;17.00;54.80;;;;;;5091939;27;45258;-68
2023/01/17 04:43:07;;;;;;;0.88;0.70;;;17.00;54.70;;;;;;5097324;27;46100;-68
2023/01/17 04:45:34;;;;;;;0.70;0.50;;;17.00;54.40;;;;;;5088249;27;45454;-68
2023/01/17 04:48:03;;;;;;;1.05;0.60;;;17.00;53.60;;;;;;5097523;27;45411;-68
2023/01/17 04:50:31;;;;;;;0.77;0.50;;;16.90;54.00;;;;;;5090522;27;45408;-67
2023/01/17 04:52:58;;;;;;;1.75;0.63;;;16.90;53.20;;;;;;5092377;27;48147;-68
2023/01/17 04:55:25;;;;;;;1.45;0.63;;;16.90;52.90;;;;;;5097473;27;45762;-68
2023/01/17 04:57:52;;;;;;;1.67;0.82;;;16.90;52.70;;;;;;5095064;27;45404;-67
2023/01/17 05:00:21;;;;;;;1.23;0.63;;;16.90;52.20;;;;;;5102331;27;45409;-68
2023/01/17 05:02:47;;;;;;;3.13;0.77;;;17.00;52.00;;;;;;5102240;27;46994;-68
2023/01/17 05:05:14;;;;;;;1.20;0.73;;;16.90;51.20;;;;;;5101842;27;45446;-68
2023/01/17 05:07:41;;;;;;;1.00;0.80;;;17.00;52.00;;;;;;5102780;27;45347;-68
2023/01/17 05:10:09;;;;;;;1.15;0.70;;;16.90;52.20;;;;;;5097508;27;45253;-68
2023/01/17 05:12:36;;;;;;;0.93;0.50;;;16.90;52.00;;;;;;5093771;27;46288;-68
2023/01/17 05:15:03;;;;;;;1.38;0.65;;;17.00;52.10;;;;;;5101673;27;45343;-68
2023/01/17 05:17:31;;;;;;;1.80;0.80;;;17.00;53.00;;;;;;5102530;27;45363;-68
2023/01/17 05:19:58;;;;;;;1.15;0.60;;;17.00;53.30;;;;;;5097282;27;45412;-67
2023/01/17 05:22:25;;;;;;;1.73;0.82;;;16.90;53.30;;;;;;5105757;27;48023;-68
2023/01/17 05:24:51;;;;;;;2.15;0.65;;;16.90;53.20;;;;;;5104993;27;45306;-68
2023/01/17 05:27:18;;;;;;;3.10;1.00;;;16.90;54.30;;;;;;5099374;27;45385;-68
2023/01/17 05:29:45;;;;;;;1.58;0.60;;;16.90;53.10;;;;;;5103988;27;45302;-68
2023/01/17 05:32:12;;;;;;;1.52;0.52;;;16.90;52.90;;;;;;5105361;27;47474;-68
2023/01/17 05:34:40;;;;;;;2.25;0.73;;;16.90;52.90;;;;;;5105682;27;45367;-67
2023/01/17 05:37:06;;;;;;;1.45;0.70;;;17.00;52.70;;;;;;5105508;27;45257;-67
2023/01/17 05:39:33;;;;;;;2.03;0.70;;;16.90;52.30;;;;;;5105355;27;45470;-67
2023/01/17 05:42:00;;;;;;;1.55;0.60;;;16.90;52.30;;;;;;5105351;27;45502;-68
2023/01/17 05:44:27;;;;;;;4.10;0.93;;;16.90;51.70;;;;;;5099658;27;45510;-68
2023/01/17 05:46:54;;;;;;;1.75;0.90;;;16.90;51.10;;;;;;5103905;27;45280;-67
2023/01/17 05:49:21;;;;;;;1.63;0.80;;;16.90;51.10;;;;;;5105562;27;45501;-68
2023/01/17 05:51:49;;;;;;;1.42;1.00;;;16.90;51.10;;;;;;5101122;27;46628;-67
2023/01/17 05:54:16;;;;;;;2.25;0.90;;;16.90;51.10;;;;;;5093116;27;45365;-68
2023/01/17 05:56:43;;;;;;;1.35;0.80;;;16.90;50.90;;;;;;5099190;27;45309;-68
2023/01/17 05:59:10;;;;;;;1.67;1.00;;;16.90;50.10;;;;;;5104357;27;45432;-68
2023/01/17 06:01:37;;;;;;;1.60;0.70;;;16.90;50.10;;;;;;5101571;27;46301;-68
2023/01/17 06:04:04;;;;;;;4.93;1.00;;;16.90;49.80;;;;;;5104336;27;45359;-68
2023/01/17 06:06:30;;;;;;;1.88;1.00;;;16.90;49.90;;;;;;5095497;27;45401;-67
2023/01/17 06:08:59;;;;;;;2.30;1.00;;;16.90;50.10;;;;;;5096814;27;45571;-68
2023/01/17 06:11:26;;;;;;;1.35;0.93;;;16.90;51.10;;;;;;5105012;27;47128;-68
2023/01/17 06:13:53;;;;;;;2.67;0.90;;;16.90;51.10;;;;;;5105016;27;45451;-68
2023/01/17 06:16:19;;;;;;;1.77;1.00;;;16.90;51.10;;;;;;5104540;27;45336;-68
2023/01/17 06:18:46;;;;;;;2.80;1.20;;;16.90;51.10;;;;;;5094203;27;45288;-68
2023/01/17 06:21:13;;;;;;;1.00;0.90;;;16.90;51.10;;;;;;5104729;27;45445;-68
2023/01/17 06:23:40;;;;;;;1.80;1.10;;;16.90;51.10;;;;;;5093900;27;45438;-68
2023/01/17 06:26:08;;;;;;;2.03;1.20;;;16.90;50.60;;;;;;5088466;27;45970;-67
2023/01/17 06:28:35;;;;;;;1.15;1.05;;;16.90;50.60;;;;;;5093127;27;45440;-67
2023/01/17 06:31:06;;;;;;;1.77;1.30;;;16.90;51.10;;;;;;5095982;27;46286;-68
2023/01/17 06:33:33;;;;;;;2.20;1.17;;;16.90;50.50;;;;;;5096955;27;45427;-67
2023/01/17 06:36:00;;;;;;;5.22;1.20;;;16.80;49.90;;;;;;5089676;27;45352;-68
2023/01/17 06:38:28;;;;;;;2.10;1.17;;;16.80;51.10;;;;;;5094187;27;45437;-67
2023/01/17 06:40:59;;;;;;;1.42;0.98;;;16.80;49.80;;;;;;5097339;27;46577;-67
2023/01/17 06:43:27;;;;;;;2.40;0.95;;;16.80;51.00;;;;;;5102417;27;45425;-67
2023/01/17 06:45:55;;;;;;;2.33;1.20;;;16.80;49.50;;;;;;5104058;27;45407;-68
2023/01/17 06:48:22;;;;;;;3.00;1.30;;;16.80;49.30;;;;;;5096215;27;45451;-68
2023/01/17 06:50:48;;;;;;;1.85;1.30;;;16.80;49.40;;;;;;5098701;27;45420;-67
2023/01/17 06:53:15;;;;;;;1.80;1.27;;;16.80;49.10;;;;;;5098245;27;45447;-68
2023/01/17 06:55:42;;;;;;;3.00;1.27;;;16.80;48.90;;;;;;5091129;27;45360;-68
2023/01/17 06:58:09;;;;;;;2.30;1.27;;;16.70;48.70;;;;;;5087327;27;45555;-67
2023/01/17 07:00:37;;;;;;;2.65;1.27;;;16.80;48.70;;;;;;5090858;27;45466;-67
2023/01/17 07:03:04;;;;;;;2.55;1.23;;;16.70;48.50;;;;;;5092212;27;45384;-68
2023/01/17 07:05:31;;;;;;;2.05;1.10;;;16.70;48.80;;;;;;5093825;27;45358;-67
2023/01/17 07:07:58;;;;;;;2.90;1.30;;;16.80;49.60;;;;;;5101991;27;45573;-67
2023/01/17 07:10:25;;;;;;;2.60;1.30;;;16.80;49.50;;;;;;5096404;27;45330;-67
2023/01/17 07:12:57;;;;;;;3.35;1.15;;;16.80;49.60;;;;;;5103732;27;45493;-67
2023/01/17 07:15:24;;;;;;;2.83;1.20;;;16.80;49.60;;;;;;5091485;27;45322;-67
2023/01/17 07:17:52;;;;;;;2.28;1.10;;;16.80;49.50;;;;;;5101442;27;45600;-68
2023/01/17 07:20:19;;;;;;;1.60;0.98;;;16.90;50.10;;;;;;5102321;27;45502;-67
2023/01/17 07:22:45;;;;;;;3.35;1.23;;;16.90;50.60;;;;;;5100431;27;45541;-68
2023/01/17 07:25:12;;;;;;;1.40;0.98;;;16.90;50.50;;;;;;5103579;27;45428;-68
2023/01/17 07:27:39;;;;;;;2.50;1.33;;;16.90;50.10;;;;;;5105469;27;45414;-67
2023/01/17 07:30:07;;;;;;;3.45;1.40;;;16.80;49.70;;;;;;5103275;27;47686;-67
2023/01/17 07:32:34;;;;;;;3.30;1.40;;;16.80;49.40;;;;;;5103700;27;45523;-67
2023/01/17 07:35:02;;;;;;;3.35;1.27;;;16.80;49.00;;;;;;5106233;27;45467;-68
2023/01/17 07:37:29;;;;;;;2.20;1.23;;;16.80;48.60;;;;;;5105737;27;45405;-67
2023/01/17 07:39:55;;;;;;;1.67;1.20;;;16.80;48.80;;;;;;5103717;27;47281;-67
2023/01/17 07:42:22;;;;;;;1.70;1.00;;;16.80;48.90;;;;;;5101582;27;45377;-67
2023/01/17 07:44:49;;;;;;;3.67;1.33;;;16.80;49.20;;;;;;5103789;27;45447;-67
2023/01/17 07:47:16;;;;;;;3.55;1.20;;;16.80;49.40;;;;;;5103030;27;45549;-68
2023/01/17 07:49:42;;;;;;;3.50;1.35;;;16.80;49.70;;;;;;5103372;27;46630;-67
2023/01/17 07:52:10;;;;;;;2.03;1.08;;;16.80;49.60;;;;;;5103656;27;45374;-67
2023/01/17 07:54:37;;;;;;;2.30;1.10;;;16.80;49.10;;;;;;5103658;27;45209;-68
2023/01/17 07:57:04;;;;;;;2.67;1.40;;;16.80;48.70;;;;;;5103309;27;45444;-67
2023/01/17 07:59:32;;;;;;;2.05;1.15;;;16.80;49.10;;;;;;5097402;27;45480;-67
2023/01/17 08:01:59;;;;;;;4.50;1.30;;;16.80;49.30;;;;;;5092581;27;45436;-67
2023/01/17 08:04:26;;;;;;;1.83;1.08;;;16.80;49.20;;;;;;5095148;27;45237;-68
2023/01/17 08:06:53;;;;;;;4.25;1.33;;;16.80;49.40;;;;;;5094770;27;45262;-67
2023/01/17 08:09:22;;;;;;;3.50;1.30;;;16.80;48.90;;;;;;5092693;27;45567;-68
2023/01/17 08:11:48;;;;;;;2.17;1.05;;;16.80;49.10;;;;;;5093480;27;45325;-68
2023/01/17 08:14:15;;;;;;;2.80;1.38;;;16.80;48.80;;;;;;5092660;27;45461;-68
2023/01/17 08:16:42;;;;;;;2.55;1.05;;;16.80;49.00;;;;;;5091034;27;45250;-67
2023/01/17 08:19:09;;;;;;;6.03;1.17;;;16.80;49.00;;;;;;5101622;27;46314;-67
2023/01/17 08:21:35;;;;;;;3.67;1.40;;;16.80;48.70;;;;;;5100136;27;45910;-67
2023/01/17 08:24:02;;;;;;;2.35;1.27;;;16.80;48.60;;;;;;5092346;27;45529;-67
2023/01/17 08:26:30;;;;;;;2.95;0.98;;;16.80;48.10;;;;;;5093950;27;45273;-67
2023/01/17 08:28:59;;;;;;;3.92;1.35;;;16.80;48.10;;;;;;5101578;27;46419;-67
2023/01/17 08:31:26;;;;;;;2.08;1.00;;;16.80;47.80;;;;;;5102719;27;45473;-68
2023/01/17 08:33:53;;;;;;;3.05;1.27;;;16.80;47.40;;;;;;5095132;27;45376;-67
2023/01/17 08:36:19;;;;;;;3.65;1.25;;;16.80;47.40;;;;;;5102478;27;45514;-67
2023/01/17 08:38:49;;;;;;;2.15;1.30;;;16.80;47.40;;;;;;5101332;27;47636;-68
2023/01/17 08:41:16;;;;;;;2.65;1.15;;;16.80;47.10;;;;;;5086990;27;45322;-68
2023/01/17 08:43:44;;;;;;;2.65;1.30;;;16.80;47.30;;;;;;5098150;27;45315;-68
2023/01/17 08:46:11;;;;;;;2.30;0.65;;;16.80;47.00;;;;;;5095378;27;45226;-67
2023/01/17 08:48:38;;;;;;;2.47;1.00;;;16.80;47.00;;;;;;5101797;27;45345;-68
2023/01/17 08:51:06;;;;;;;2.58;1.02;;;16.70;46.90;;;;;;5099881;27;45384;-67
2023/01/17 08:53:33;;;;;;;1.23;0.88;;;16.80;47.50;;;;;;5102076;27;45560;-69
2023/01/17 08:56:01;;;;;;;2.97;0.95;;;16.80;47.80;;;;;;5098413;27;45226;-68
2023/01/17 08:58:29;;;;;;;1.40;1.02;;;16.80;47.90;;;;;;5105195;27;45403;-67
2023/01/17 09:00:59;;;;;;;1.65;0.93;;;16.90;49.10;;;;;;5105691;27;45308;-67
2023/01/17 09:03:26;;;;;;;2.92;1.10;;;16.90;48.40;;;;;;5105741;27;45379;-67
2023/01/17 09:06:01;;;;;;;10.20;1.60;;;16.80;48.40;;;;;;5104569;27;45419;-67
2023/01/17 09:08:27;;;;;;;5.03;1.40;;;16.90;48.30;;;;;;5101524;27;45377;-67
2023/01/17 09:10:54;;;;;;;3.47;1.40;;;16.80;48.00;;;;;;5093573;27;45407;-67
2023/01/17 09:13:21;;;;;;;4.05;1.20;;;16.80;48.20;;;;;;5094578;27;45257;-68
2023/01/17 09:15:47;;;;;;;2.20;0.90;;;16.80;47.70;;;;;;5106722;27;45457;-67
2023/01/17 09:18:16;;;;;;;6.32;1.20;;;16.90;47.40;;;;;;5104478;27;46644;-67
2023/01/17 09:20:42;;;;;;;2.58;1.13;;;16.90;46.80;;;;;;5105510;27;45307;-68
2023/01/17 09:23:09;;;;;;;2.33;1.05;;;16.90;46.80;;;;;;5108503;27;45340;-67
2023/01/17 09:25:36;;;;;;;3.20;1.10;;;16.90;46.50;;;;;;5105441;27;45548;-67
2023/01/17 09:28:03;;;;;;;2.40;1.15;;;16.90;46.50;;;;;;5105514;27;47968;-67
2023/01/17 09:30:29;;;;;;;3.83;1.27;;;16.90;46.60;;;;;;5102079;27;45368;-68
2023/01/17 09:32:56;;;;;;;3.28;1.00;;;16.90;46.60;;;;;;5101619;27;45418;-67
2023/01/17 09:35:24;;;;;;;1.52;1.08;;;16.90;46.50;;;;;;5106173;27;45266;-67
2023/01/17 09:37:51;;;;;;;3.30;1.08;;;16.90;46.50;;;;;;5105537;27;45447;-68
2023/01/17 09:40:21;;;;;;;1.55;0.98;;;16.90;46.60;;;;;;5108540;27;45278;-67
2023/01/17 09:42:52;;;;;;;2.22;1.10;;;16.90;47.60;;;;;;5106109;27;45346;-68
2023/01/17 09:45:20;;;;;;;3.03;1.15;;;16.90;47.20;;;;;;5104888;27;45510;-68
2023/01/17 09:47:51;;;;;;;3.20;1.08;;;16.90;49.90;;;;;;5108522;27;45380;-68
2023/01/17 09:50:27;;;;;;;2.22;1.17;;;16.90;48.80;;;;;;5105179;27;45469;-67
2023/01/17 09:52:59;;;;;;;3.13;1.10;;;16.90;48.20;;;;;;5108691;27;45564;-67
2023/01/17 09:55:28;;;;;;;2.33;1.00;;;16.90;48.20;;;;;;5104758;27;45565;-67
2023/01/17 09:58:00;;;;;;;1.65;0.85;;;16.90;48.00;;;;;;5107624;27;46609;-68
2023/01/17 10:00:38;;;;;;;3.20;1.30;;;16.90;48.00;;;;;;5103693;27;45876;-68
2023/01/17 10:03:24;;;;;;;9.93;1.30;;;16.90;47.80;;;;;;5104283;27;45257;-69
2023/01/17 10:06:02;;;;;;;8.40;1.83;;;17.00;50.20;;;;;;5104100;27;45442;-67
2023/01/17 10:08:44;;;;;;;6.55;1.35;;;17.10;50.20;;;;;;5093398;27;46395;-68
2023/01/17 10:11:28;;;;;;;3.53;1.55;;;17.00;49.10;;;;;;5096013;27;45333;-68
2023/01/17 10:14:11;;;;;;;5.43;1.42;;;17.00;48.90;;;;;;5105081;27;45417;-68
2023/01/17 10:16:44;;;;;;;2.60;0.90;;;16.90;48.50;;;;;;5099348;27;45357;-68
2023/01/17 10:19:30;;;;;;;4.20;1.20;;;16.90;48.50;;;;;;5104761;27;45427;-68
2023/01/17 10:22:20;;;;;;;2.83;1.10;;;16.90;48.00;;;;;;5093283;27;45379;-68
2023/01/17 10:25:17;;;;;;;4.30;1.20;;;16.90;47.70;;;;;;5104430;27;45368;-68
2023/01/17 10:27:51;;;;;;;5.13;1.13;;;16.90;47.70;;;;;;5092423;27;45532;-68
2023/01/17 10:30:23;;;;;;;3.60;1.10;;;16.90;47.50;;;;;;5097404;27;45366;-68
2023/01/17 10:32:49;;;;;;;3.53;1.20;;;16.80;47.20;;;;;;5096922;27;45450;-68
2023/01/17 10:35:23;;;;;;;2.90;1.10;;;16.90;47.50;;;;;;5097659;27;45315;-68
2023/01/17 10:37:55;;;;;;;1.52;1.02;;;16.90;47.20;;;;;;5097201;27;45574;-68
2023/01/17 10:40:28;;;;;;;2.78;1.23;;;16.90;47.00;;;;;;5086737;27;47338;-68
2023/01/17 10:43:01;;;;;;;3.03;1.10;;;17.00;47.20;;;;;;5095066;27;45329;-68
2023/01/17 10:45:28;;;;;;;3.90;1.40;;;17.00;47.20;;;;;;5089270;27;45383;-68
2023/01/17 10:48:04;;;;;;;1.67;0.88;;;16.90;46.90;;;;;;5099880;27;45314;-70
2023/01/17 10:50:40;;;;;;;2.40;0.90;;;17.00;46.80;;;;;;5100682;27;45399;-69
2023/01/17 10:53:15;;;;;;;2.33;1.00;;;17.10;51.40;;;;;;5089759;27;45328;-68
2023/01/17 10:55:50;;;;;;;1.63;1.05;;;17.10;48.30;;;;;;5106628;27;45479;-68
2023/01/17 10:58:17;;;;;;;1.98;1.00;;;17.10;47.40;;;;;;5103607;27;45434;-68
2023/01/17 11:00:49;;;;;;;3.47;0.88;;;17.10;47.30;;;;;;5101856;27;46284;-69
2023/01/17 11:03:19;;;;;;;2.75;1.30;;;17.10;47.40;;;;;;5098591;27;45338;-68
2023/01/17 11:06:16;;;;;;;2.22;1.08;;;17.00;47.00;;;;;;5101760;27;45249;-68
2023/01/17 11:08:52;;;;;;;2.80;1.17;;;17.10;46.70;;;;;;5102167;27;45272;-68
2023/01/17 11:11:21;;;;;;;2.22;1.13;;;17.00;46.70;;;;;;5103656;27;47452;-68
2023/01/17 11:13:49;;;;;;;4.07;1.35;;;17.00;46.60;;;;;;5103356;27;45290;-68
2023/01/17 11:16:21;;;;;;;2.38;0.85;;;17.00;46.50;;;;;;5102388;27;45244;-68
2023/01/17 11:19:03;;;;;;;3.35;1.08;;;17.00;46.60;;;;;;5098781;27;45363;-68
2023/01/17 11:21:30;;;;;;;4.07;1.52;;;17.00;46.60;;;;;;5097373;27;45288;-68
2023/01/17 11:24:10;;;;;;;1.98;1.10;;;17.00;46.70;;;;;;5097746;27;45325;-67
2023/01/17 11:26:45;;;;;;;2.25;1.10;;;17.00;46.60;;;;;;5095720;27;45370;-68
2023/01/17 11:29:25;;;;;;;2.50;1.10;;;17.00;46.50;;;;;;5104123;27;45538;-68
2023/01/17 11:31:52;;;;;;;2.15;0.90;;;17.00;46.50;;;;;;5100967;27;48811;-68
2023/01/17 11:34:24;;;;;;;2.30;0.93;;;16.90;46.80;;;;;;5098638;27;45284;-68
2023/01/17 11:37:08;;;;;;;3.33;1.00;;;17.00;47.30;;;;;;5105612;27;45639;-68
2023/01/17 11:39:36;;;;;;;2.42;1.45;;;17.00;47.70;;;;;;5100269;27;45350;-68
2023/01/17 11:42:07;;;;;;;2.15;1.00;;;17.10;47.80;;;;;;5099045;27;47099;-68
2023/01/17 11:44:35;;;;;;;1.85;1.25;;;17.10;47.90;;;;;;5102137;27;45415;-68
2023/01/17 11:47:18;;;;;;;1.67;0.90;;;17.10;48.10;;;;;;5098236;27;45492;-68
2023/01/17 11:49:47;;;;;;;4.10;1.10;;;17.10;48.10;;;;;;5108552;27;45355;-68
2023/01/17 11:52:23;;;;;;;2.33;1.00;;;17.10;48.20;;;;;;5101863;27;46767;-68
2023/01/17 11:54:53;;;;;;;1.98;0.95;;;17.10;48.30;;;;;;5102717;27;45454;-68
2023/01/17 11:57:23;;;;;;;3.30;0.90;;;17.10;48.60;;;;;;5102541;27;45451;-67
2023/01/17 11:59:55;;;;;;;1.35;0.80;;;17.10;48.80;;;;;;5102526;27;45303;-68
2023/01/17 12:02:53;;;;;;;3.13;0.80;;;17.10;48.80;;;;;;5102154;27;46061;-67
2023/01/17 12:05:32;;;;;;;2.35;1.05;;;17.10;49.10;;;;;;5097255;27;45327;-68
2023/01/17 12:08:09;;;;;;;1.23;0.75;;;17.10;49.30;;;;;;5094682;27;45292;-67
2023/01/17 12:10:46;;;;;;;1.58;0.88;;;17.10;49.40;;;;;;5102621;27;45396;-68
2023/01/17 12:16:30;;;;;;;2.97;0.88;;;17.00;49.30;;;;;;5086566;27;45383;-68
2023/01/17 12:19:20;;;;;;;2.85;0.85;;;17.00;49.40;;;;;;5095313;27;45342;-67
2023/01/17 12:21:59;;;;;;;3.03;0.90;;;17.00;49.50;;;;;;5082813;27;45401;-68
2023/01/17 12:25:07;;;;;;;1.38;1.00;;;17.00;49.30;;;;;;5089863;27;47332;-68
2023/01/17 12:27:43;;;;;;;2.25;0.63;;;17.00;49.50;;;;;;5002777;28;45387;-68
2023/01/17 12:30:30;;;;;;;34.10;3.08;;;17.10;49.70;;;;;;5000590;28;45656;-68
2023/01/17 12:33:17;;;;;;;6.07;1.10;;;17.10;51.40;;;;;;5064956;27;45698;-68
2023/01/17 12:35:49;;;;;;;5.07;1.00;;;17.20;54.30;;;;;;5090247;27;45516;-68
2023/01/17 12:38:22;;;;;;;5.90;0.85;;;17.30;54.00;;;;;;5105962;27;45316;-67
2023/01/17 12:40:56;;;;;;;5.30;0.93;;;17.30;54.00;;;;;;5092657;27;45359;-68
2023/01/17 12:43:31;;;;;;;4.22;0.88;;;17.40;54.10;;;;;;5090891;27;45420;-68
2023/01/17 12:45:59;;;;;;;2.08;0.80;;;17.40;54.00;;;;;;5091666;27;47936;-68
2023/01/17 12:48:32;;;;;;;4.30;0.85;;;17.40;54.30;;;;;;5099209;27;45308;-68
2023/01/17 12:51:05;;;;;;;4.47;0.65;;;17.40;54.40;;;;;;5094430;27;45439;-68
2023/01/17 12:53:37;;;;;;;6.85;1.08;;;17.50;54.40;;;;;;5112935;27;45311;-67
2023/01/17 12:56:09;;;;;;;3.10;0.52;;;17.40;53.70;;;;;;5107986;27;46472;-67
2023/01/17 12:58:41;;;;;;;4.13;1.20;;;17.40;52.80;;;;;;5102577;27;45276;-67
2023/01/17 13:01:19;;;;;;;3.05;1.02;;;17.30;52.50;;;;;;5101599;27;45493;-68
2023/01/17 13:03:57;;;;;;;3.17;0.95;;;17.30;52.40;;;;;;5102209;27;45378;-68
2023/01/17 13:06:31;;;;;;;2.33;0.82;;;17.30;52.30;;;;;;5095752;27;46497;-67
2023/01/17 13:09:01;;;;;;;3.05;0.80;;;17.30;51.90;;;;;;5102788;27;45358;-67
2023/01/17 13:11:34;;;;;;;2.40;0.98;;;17.30;51.50;;;;;;5102698;27;45480;-68
2023/01/17 13:14:05;;;;;;;2.13;1.00;;;17.30;51.50;;;;;;5095178;27;45336;-68
2023/01/17 13:16:38;;;;;;;1.90;0.90;;;17.20;51.40;;;;;;5101028;27;45334;-68
2023/01/17 13:19:13;;;;;;;5.90;1.00;;;17.20;51.40;;;;;;5100705;27;45326;-67
2023/01/17 13:21:41;;;;;;;2.10;0.70;;;17.20;51.50;;;;;;5102263;27;45201;-67
2023/01/17 13:24:30;;;;;;;2.05;0.98;;;17.20;51.40;;;;;;5091183;27;45603;-67
2023/01/17 13:27:30;;;;;;;2.83;1.08;;;17.20;51.40;;;;;;5101328;27;45430;-68
2023/01/17 13:30:31;;;;;;;3.28;1.00;;;17.20;51.40;;;;;;5064696;27;45459;-67
2023/01/17 13:33:16;;;;;;;1.27;0.80;;;17.20;51.40;;;;;;5093734;27;45403;-68
2023/01/17 13:35:58;;;;;;;2.97;1.10;;;17.20;51.40;;;;;;5098519;27;45257;-68
2023/01/17 13:38:54;;;;;;;2.60;0.80;;;17.20;51.40;;;;;;5101893;27;46361;-67
2023/01/17 13:41:44;;;;;;;1.63;0.80;;;17.20;51.40;;;;;;5097527;27;45410;-67
2023/01/17 13:44:23;;;;;;;5.78;1.05;;;17.30;51.50;;;;;;5105595;27;45359;-67
2023/01/17 13:47:36;;;;;;;2.22;0.90;;;17.20;51.40;;;;;;5110284;27;45477;-68
2023/01/17 13:50:03;;;;;;;2.45;0.95;;;17.20;51.40;;;;;;5098197;27;47858;-67
2023/01/17 13:52:31;;;;;;;2.60;0.93;;;17.20;51.40;;;;;;5104021;27;45333;-68
2023/01/17 13:55:00;;;;;;;2.15;0.80;;;17.20;51.40;;;;;;5104819;27;45645;-67
2023/01/17 13:57:38;;;;;;;2.33;0.98;;;17.20;51.40;;;;;;5099877;27;45570;-67
2023/01/17 14:00:50;;;;;;;1.02;0.60;;;17.20;51.50;;;;;;5097692;27;47469;-67
2023/01/17 14:03:55;;;;;;;4.68;0.70;;;17.20;51.40;;;;;;5065030;27;45284;-67
2023/01/17 14:06:40;;;;;;;2.63;0.68;;;17.20;51.50;;;;;;5100648;27;45448;-68
2023/01/17 14:09:15;;;;;;;3.90;0.65;;;17.10;51.60;;;;;;5104412;27;45283;-68
2023/01/17 14:11:55;;;;;;;1.50;0.70;;;17.10;51.80;;;;;;5103245;27;45423;-67
2023/01/17 14:14:47;;;;;;;2.15;0.60;;;17.10;51.90;;;;;;5103565;27;45321;-67
2023/01/17 14:17:47;;;;;;;2.72;0.77;;;17.10;51.90;;;;;;5099484;27;45678;-68
2023/01/17 14:20:48;;;;;;;2.13;0.70;;;17.10;52.10;;;;;;5099004;27;45254;-67
2023/01/17 14:23:49;;;;;;;2.55;0.73;;;17.10;52.00;;;;;;5098342;27;45529;-67
2023/01/17 14:26:43;;;;;;;4.13;0.60;;;17.10;52.10;;;;;;5095614;27;45426;-67
2023/01/17 14:29:45;;;;;;;1.60;0.82;;;17.10;52.10;;;;;;5102629;27;45299;-67
2023/01/17 14:32:15;;;;;;;1.92;0.57;;;17.10;52.20;;;;;;5100804;27;45415;-67
2023/01/17 14:34:44;;;;;;;0.95;0.60;;;17.10;52.20;;;;;;5103673;27;46259;-67
2023/01/17 14:37:18;;;;;;;1.73;0.60;;;17.10;52.30;;;;;;5102690;27;45321;-67
2023/01/17 14:39:46;;;;;;;1.02;0.52;;;17.10;52.00;;;;;;5104712;27;45512;-67